sensor_id;sensor_type;location;lat;lon;timestamp;P1;durP1;ratioP1;P2;durP2;ratioP2
64543;SDS011;50936;51.660;5.616;2022-07-29T00:00:12;5.82;;;1.80;;
64543;SDS011;50936;51.660;5.616;2022-07-29T00:02:40;2.33;;;1.60;;
64543;SDS011;50936;51.660;5.616;2022-07-29T00:05:07;3.08;;;1.60;;
64543;SDS011;50936;51.660;5.616;2022-07-29T00:07:36;2.38;;;1.50;;
64543;SDS011;50936;51.660;5.616;2022-07-29T00:10:03;4.82;;;1.92;;
64543;SDS011;50936;51.660;5.616;2022-07-29T00:12:30;3.75;;;1.48;;
64543;SDS011;50936;51.660;5.616;2022-07-29T00:14:57;3.95;;;1.83;;
64543;SDS011;50936;51.660;5.616;2022-07-29T00:17:24;2.85;;;1.60;;
64543;SDS011;50936;51.660;5.616;2022-07-29T00:19:51;3.95;;;1.70;;
64543;SDS011;50936;51.660;5.616;2022-07-29T00:22:18;4.82;;;2.40;;
64543;SDS011;50936;51.660;5.616;2022-07-29T00:24:49;2.92;;;1.48;;
64543;SDS011;50936;51.660;5.616;2022-07-29T00:27:16;3.38;;;1.60;;
64543;SDS011;50936;51.660;5.616;2022-07-29T00:29:44;3.55;;;1.83;;
64543;SDS011;50936;51.660;5.616;2022-07-29T00:32:11;3.38;;;1.70;;
64543;SDS011;50936;51.660;5.616;2022-07-29T00:34:38;6.30;;;1.85;;
64543;SDS011;50936;51.660;5.616;2022-07-29T00:37:24;4.80;;;1.60;;
64543;SDS011;50936;51.660;5.616;2022-07-29T00:39:51;2.90;;;1.52;;
64543;SDS011;50936;51.660;5.616;2022-07-29T00:42:18;8.18;;;1.67;;
64543;SDS011;50936;51.660;5.616;2022-07-29T00:44:45;3.88;;;1.70;;
64543;SDS011;50936;51.660;5.616;2022-07-29T00:47:12;2.17;;;1.42;;
64543;SDS011;50936;51.660;5.616;2022-07-29T00:49:40;4.70;;;1.88;;
64543;SDS011;50936;51.660;5.616;2022-07-29T00:52:09;2.75;;;1.60;;
64543;SDS011;50936;51.660;5.616;2022-07-29T00:54:38;6.18;;;1.92;;
64543;SDS011;50936;51.660;5.616;2022-07-29T00:57:10;4.88;;;1.90;;
64543;SDS011;50936;51.660;5.616;2022-07-29T00:59:38;4.55;;;1.50;;
64543;SDS011;50936;51.660;5.616;2022-07-29T01:02:05;4.88;;;1.63;;
64543;SDS011;50936;51.660;5.616;2022-07-29T01:04:33;4.53;;;1.48;;
64543;SDS011;50936;51.660;5.616;2022-07-29T01:07:03;5.90;;;1.83;;
64543;SDS011;50936;51.660;5.616;2022-07-29T01:09:32;4.57;;;1.90;;
64543;SDS011;50936;51.660;5.616;2022-07-29T01:12:22;4.85;;;1.90;;
64543;SDS011;50936;51.660;5.616;2022-07-29T01:14:54;3.78;;;1.70;;
64543;SDS011;50936;51.660;5.616;2022-07-29T01:20:07;5.75;;;1.52;;
64543;SDS011;50936;51.660;5.616;2022-07-29T01:23:47;4.63;;;1.60;;
64543;SDS011;50936;51.660;5.616;2022-07-29T01:28:59;4.28;;;1.70;;
64543;SDS011;50936;51.660;5.616;2022-07-29T01:32:07;3.35;;;1.73;;
64543;SDS011;50936;51.660;5.616;2022-07-29T01:35:10;4.90;;;1.80;;
64543;SDS011;50936;51.660;5.616;2022-07-29T01:37:51;5.53;;;1.90;;
64543;SDS011;50936;51.660;5.616;2022-07-29T01:40:36;6.93;;;1.85;;
64543;SDS011;50936;51.660;5.616;2022-07-29T01:43:20;4.75;;;1.65;;
64543;SDS011;50936;51.660;5.616;2022-07-29T01:45:58;5.28;;;1.60;;
64543;SDS011;50936;51.660;5.616;2022-07-29T01:49:05;2.92;;;1.40;;
64543;SDS011;50936;51.660;5.616;2022-07-29T01:51:33;3.95;;;1.70;;
64543;SDS011;50936;51.660;5.616;2022-07-29T01:54:26;6.00;;;1.60;;
64543;SDS011;50936;51.660;5.616;2022-07-29T01:57:01;3.88;;;1.60;;
64543;SDS011;50936;51.660;5.616;2022-07-29T01:59:33;5.80;;;1.70;;
64543;SDS011;50936;51.660;5.616;2022-07-29T02:02:03;4.07;;;1.85;;
64543;SDS011;50936;51.660;5.616;2022-07-29T02:04:35;7.45;;;1.90;;
64543;SDS011;50936;51.660;5.616;2022-07-29T02:07:05;6.18;;;2.20;;
64543;SDS011;50936;51.660;5.616;2022-07-29T02:09:36;4.57;;;2.00;;
64543;SDS011;50936;51.660;5.616;2022-07-29T02:12:05;4.18;;;2.30;;
64543;SDS011;50936;51.660;5.616;2022-07-29T02:14:36;6.57;;;2.50;;
64543;SDS011;50936;51.660;5.616;2022-07-29T02:17:09;5.88;;;2.70;;
64543;SDS011;50936;51.660;5.616;2022-07-29T02:19:39;6.38;;;2.38;;
64543;SDS011;50936;51.660;5.616;2022-07-29T02:22:10;5.80;;;2.15;;
64543;SDS011;50936;51.660;5.616;2022-07-29T02:24:39;6.32;;;2.45;;
64543;SDS011;50936;51.660;5.616;2022-07-29T02:27:09;6.60;;;2.67;;
64543;SDS011;50936;51.660;5.616;2022-07-29T02:29:37;6.07;;;2.47;;
64543;SDS011;50936;51.660;5.616;2022-07-29T02:32:06;5.22;;;2.75;;
64543;SDS011;50936;51.660;5.616;2022-07-29T02:34:37;5.60;;;2.22;;
64543;SDS011;50936;51.660;5.616;2022-07-29T02:37:08;6.05;;;2.40;;
64543;SDS011;50936;51.660;5.616;2022-07-29T02:39:37;7.60;;;2.88;;
64543;SDS011;50936;51.660;5.616;2022-07-29T02:42:10;6.53;;;2.83;;
64543;SDS011;50936;51.660;5.616;2022-07-29T02:44:41;4.43;;;2.55;;
64543;SDS011;50936;51.660;5.616;2022-07-29T02:53:01;7.35;;;2.90;;
64543;SDS011;50936;51.660;5.616;2022-07-29T02:55:37;5.85;;;2.85;;
64543;SDS011;50936;51.660;5.616;2022-07-29T03:00:58;6.93;;;3.03;;
64543;SDS011;50936;51.660;5.616;2022-07-29T03:03:32;6.55;;;3.05;;
64543;SDS011;50936;51.660;5.616;2022-07-29T03:06:04;6.35;;;2.97;;
64543;SDS011;50936;51.660;5.616;2022-07-29T03:08:54;5.55;;;2.83;;
64543;SDS011;50936;51.660;5.616;2022-07-29T03:11:23;6.47;;;3.20;;
64543;SDS011;50936;51.660;5.616;2022-07-29T03:14:12;6.03;;;2.88;;
64543;SDS011;50936;51.660;5.616;2022-07-29T03:16:40;5.80;;;2.72;;
64543;SDS011;50936;51.660;5.616;2022-07-29T03:19:08;4.65;;;2.65;;
64543;SDS011;50936;51.660;5.616;2022-07-29T03:21:35;7.35;;;3.10;;
64543;SDS011;50936;51.660;5.616;2022-07-29T03:24:02;6.75;;;2.53;;
64543;SDS011;50936;51.660;5.616;2022-07-29T03:26:35;7.30;;;3.10;;
64543;SDS011;50936;51.660;5.616;2022-07-29T03:29:02;4.90;;;3.42;;
64543;SDS011;50936;51.660;5.616;2022-07-29T03:31:29;4.90;;;2.95;;
64543;SDS011;50936;51.660;5.616;2022-07-29T03:33:56;6.55;;;3.00;;
64543;SDS011;50936;51.660;5.616;2022-07-29T03:36:23;4.93;;;3.05;;
64543;SDS011;50936;51.660;5.616;2022-07-29T03:38:51;5.43;;;3.05;;
64543;SDS011;50936;51.660;5.616;2022-07-29T03:41:18;6.22;;;3.03;;
64543;SDS011;50936;51.660;5.616;2022-07-29T03:43:49;8.13;;;3.90;;
64543;SDS011;50936;51.660;5.616;2022-07-29T03:46:18;6.63;;;3.40;;
64543;SDS011;50936;51.660;5.616;2022-07-29T03:48:50;6.50;;;3.10;;
64543;SDS011;50936;51.660;5.616;2022-07-29T03:51:23;7.78;;;3.20;;
64543;SDS011;50936;51.660;5.616;2022-07-29T03:54:00;6.38;;;3.20;;
64543;SDS011;50936;51.660;5.616;2022-07-29T03:56:37;7.28;;;3.55;;
64543;SDS011;50936;51.660;5.616;2022-07-29T03:59:08;7.65;;;3.40;;
64543;SDS011;50936;51.660;5.616;2022-07-29T04:01:38;8.57;;;3.50;;
64543;SDS011;50936;51.660;5.616;2022-07-29T04:04:08;6.90;;;3.13;;
64543;SDS011;50936;51.660;5.616;2022-07-29T04:06:41;6.18;;;3.20;;
64543;SDS011;50936;51.660;5.616;2022-07-29T04:09:13;7.05;;;3.60;;
64543;SDS011;50936;51.660;5.616;2022-07-29T04:11:41;6.82;;;3.33;;
64543;SDS011;50936;51.660;5.616;2022-07-29T04:14:29;6.45;;;3.30;;
64543;SDS011;50936;51.660;5.616;2022-07-29T04:16:58;6.55;;;3.80;;
64543;SDS011;50936;51.660;5.616;2022-07-29T04:19:30;7.13;;;3.47;;
64543;SDS011;50936;51.660;5.616;2022-07-29T04:21:58;6.90;;;3.67;;
64543;SDS011;50936;51.660;5.616;2022-07-29T04:24:26;6.75;;;3.67;;
64543;SDS011;50936;51.660;5.616;2022-07-29T04:26:53;7.80;;;3.53;;
64543;SDS011;50936;51.660;5.616;2022-07-29T04:29:20;6.03;;;3.50;;
64543;SDS011;50936;51.660;5.616;2022-07-29T04:31:46;8.23;;;3.55;;
64543;SDS011;50936;51.660;5.616;2022-07-29T04:34:13;9.07;;;3.92;;
64543;SDS011;50936;51.660;5.616;2022-07-29T04:36:41;7.28;;;3.70;;
64543;SDS011;50936;51.660;5.616;2022-07-29T04:39:08;6.97;;;3.72;;
64543;SDS011;50936;51.660;5.616;2022-07-29T04:41:34;6.72;;;3.92;;
64543;SDS011;50936;51.660;5.616;2022-07-29T04:44:01;6.07;;;3.58;;
64543;SDS011;50936;51.660;5.616;2022-07-29T04:46:32;5.68;;;3.20;;
64543;SDS011;50936;51.660;5.616;2022-07-29T04:48:59;6.15;;;3.65;;
64543;SDS011;50936;51.660;5.616;2022-07-29T04:51:27;6.57;;;3.83;;
64543;SDS011;50936;51.660;5.616;2022-07-29T04:53:53;6.10;;;4.03;;
64543;SDS011;50936;51.660;5.616;2022-07-29T04:56:20;7.97;;;3.83;;
64543;SDS011;50936;51.660;5.616;2022-07-29T04:58:47;9.30;;;4.20;;
64543;SDS011;50936;51.660;5.616;2022-07-29T05:01:14;8.40;;;3.60;;
64543;SDS011;50936;51.660;5.616;2022-07-29T05:03:41;8.40;;;4.00;;
64543;SDS011;50936;51.660;5.616;2022-07-29T05:06:08;7.38;;;3.83;;
64543;SDS011;50936;51.660;5.616;2022-07-29T05:08:35;9.30;;;3.90;;
64543;SDS011;50936;51.660;5.616;2022-07-29T05:11:02;8.82;;;4.25;;
64543;SDS011;50936;51.660;5.616;2022-07-29T05:13:38;7.63;;;4.10;;
64543;SDS011;50936;51.660;5.616;2022-07-29T05:16:11;8.10;;;4.28;;
64543;SDS011;50936;51.660;5.616;2022-07-29T05:18:39;8.55;;;4.00;;
64543;SDS011;50936;51.660;5.616;2022-07-29T05:21:06;7.03;;;3.92;;
64543;SDS011;50936;51.660;5.616;2022-07-29T05:23:33;7.07;;;4.40;;
64543;SDS011;50936;51.660;5.616;2022-07-29T05:26:00;8.98;;;4.22;;
64543;SDS011;50936;51.660;5.616;2022-07-29T05:28:27;7.38;;;3.92;;
64543;SDS011;50936;51.660;5.616;2022-07-29T05:30:53;6.97;;;3.85;;
64543;SDS011;50936;51.660;5.616;2022-07-29T05:33:20;7.30;;;4.15;;
64543;SDS011;50936;51.660;5.616;2022-07-29T05:36:03;8.85;;;4.13;;
64543;SDS011;50936;51.660;5.616;2022-07-29T05:38:34;8.38;;;3.90;;
64543;SDS011;50936;51.660;5.616;2022-07-29T05:41:02;9.65;;;3.88;;
64543;SDS011;50936;51.660;5.616;2022-07-29T05:43:29;6.93;;;4.15;;
64543;SDS011;50936;51.660;5.616;2022-07-29T05:45:56;8.00;;;3.92;;
64543;SDS011;50936;51.660;5.616;2022-07-29T05:48:23;7.28;;;4.43;;
64543;SDS011;50936;51.660;5.616;2022-07-29T05:50:50;6.47;;;4.32;;
64543;SDS011;50936;51.660;5.616;2022-07-29T05:53:17;7.78;;;3.78;;
64543;SDS011;50936;51.660;5.616;2022-07-29T05:55:49;7.38;;;3.80;;
64543;SDS011;50936;51.660;5.616;2022-07-29T05:58:17;7.97;;;4.07;;
64543;SDS011;50936;51.660;5.616;2022-07-29T06:00:44;8.23;;;3.90;;
64543;SDS011;50936;51.660;5.616;2022-07-29T06:03:11;8.88;;;3.90;;
64543;SDS011;50936;51.660;5.616;2022-07-29T06:05:38;7.90;;;4.10;;
64543;SDS011;50936;51.660;5.616;2022-07-29T06:08:05;6.30;;;3.58;;
64543;SDS011;50936;51.660;5.616;2022-07-29T06:10:36;6.13;;;4.03;;
64543;SDS011;50936;51.660;5.616;2022-07-29T06:13:03;7.60;;;4.03;;
64543;SDS011;50936;51.660;5.616;2022-07-29T06:15:30;6.30;;;4.22;;
64543;SDS011;50936;51.660;5.616;2022-07-29T06:17:58;8.48;;;4.07;;
64543;SDS011;50936;51.660;5.616;2022-07-29T06:20:30;6.43;;;3.85;;
64543;SDS011;50936;51.660;5.616;2022-07-29T06:22:58;7.63;;;4.20;;
64543;SDS011;50936;51.660;5.616;2022-07-29T06:25:26;7.40;;;3.88;;
64543;SDS011;50936;51.660;5.616;2022-07-29T06:27:56;9.63;;;4.28;;
64543;SDS011;50936;51.660;5.616;2022-07-29T06:30:23;6.40;;;4.70;;
64543;SDS011;50936;51.660;5.616;2022-07-29T06:32:50;8.00;;;4.00;;
64543;SDS011;50936;51.660;5.616;2022-07-29T06:35:17;8.13;;;4.25;;
64543;SDS011;50936;51.660;5.616;2022-07-29T06:38:04;8.85;;;3.72;;
64543;SDS011;50936;51.660;5.616;2022-07-29T06:40:51;7.80;;;4.30;;
64543;SDS011;50936;51.660;5.616;2022-07-29T06:43:31;8.45;;;3.85;;
64543;SDS011;50936;51.660;5.616;2022-07-29T06:46:19;10.38;;;4.30;;
64543;SDS011;50936;51.660;5.616;2022-07-29T06:48:48;8.52;;;4.90;;
64543;SDS011;50936;51.660;5.616;2022-07-29T06:51:16;6.05;;;4.00;;
64543;SDS011;50936;51.660;5.616;2022-07-29T06:53:49;8.02;;;4.32;;
64543;SDS011;50936;51.660;5.616;2022-07-29T06:56:24;7.35;;;3.75;;
64543;SDS011;50936;51.660;5.616;2022-07-29T06:58:51;5.88;;;3.92;;
64543;SDS011;50936;51.660;5.616;2022-07-29T07:01:18;6.22;;;4.18;;
64543;SDS011;50936;51.660;5.616;2022-07-29T07:03:47;9.40;;;3.90;;
64543;SDS011;50936;51.660;5.616;2022-07-29T07:06:14;9.00;;;4.53;;
64543;SDS011;50936;51.660;5.616;2022-07-29T07:08:41;8.98;;;4.70;;
64543;SDS011;50936;51.660;5.616;2022-07-29T07:11:08;9.02;;;5.10;;
64543;SDS011;50936;51.660;5.616;2022-07-29T07:13:35;8.32;;;4.82;;
64543;SDS011;50936;51.660;5.616;2022-07-29T07:16:02;8.98;;;4.40;;
64543;SDS011;50936;51.660;5.616;2022-07-29T07:18:30;7.97;;;4.63;;
64543;SDS011;50936;51.660;5.616;2022-07-29T07:20:57;7.05;;;4.70;;
64543;SDS011;50936;51.660;5.616;2022-07-29T07:23:24;7.47;;;4.60;;
64543;SDS011;50936;51.660;5.616;2022-07-29T07:25:52;9.05;;;4.72;;
64543;SDS011;50936;51.660;5.616;2022-07-29T07:28:19;10.65;;;4.63;;
64543;SDS011;50936;51.660;5.616;2022-07-29T07:30:50;8.32;;;4.93;;
64543;SDS011;50936;51.660;5.616;2022-07-29T07:33:18;7.40;;;4.80;;
64543;SDS011;50936;51.660;5.616;2022-07-29T07:35:46;11.27;;;4.57;;
64543;SDS011;50936;51.660;5.616;2022-07-29T07:38:13;8.25;;;4.70;;
64543;SDS011;50936;51.660;5.616;2022-07-29T07:40:40;9.48;;;4.65;;
64543;SDS011;50936;51.660;5.616;2022-07-29T07:43:07;7.60;;;4.47;;
64543;SDS011;50936;51.660;5.616;2022-07-29T07:45:34;8.63;;;5.05;;
64543;SDS011;50936;51.660;5.616;2022-07-29T07:48:04;8.55;;;5.00;;
64543;SDS011;50936;51.660;5.616;2022-07-29T07:50:31;8.30;;;4.53;;
64543;SDS011;50936;51.660;5.616;2022-07-29T07:52:58;7.55;;;4.10;;
64543;SDS011;50936;51.660;5.616;2022-07-29T07:55:25;7.97;;;4.70;;
64543;SDS011;50936;51.660;5.616;2022-07-29T07:57:53;9.27;;;4.10;;
64543;SDS011;50936;51.660;5.616;2022-07-29T08:00:21;8.27;;;4.45;;
64543;SDS011;50936;51.660;5.616;2022-07-29T08:02:49;8.93;;;4.70;;
64543;SDS011;50936;51.660;5.616;2022-07-29T08:05:17;7.70;;;4.20;;
64543;SDS011;50936;51.660;5.616;2022-07-29T08:07:47;10.95;;;4.68;;
64543;SDS011;50936;51.660;5.616;2022-07-29T08:10:14;10.98;;;4.50;;
64543;SDS011;50936;51.660;5.616;2022-07-29T08:13:05;11.23;;;4.13;;
64543;SDS011;50936;51.660;5.616;2022-07-29T08:15:34;6.85;;;4.25;;
64543;SDS011;50936;51.660;5.616;2022-07-29T08:18:01;7.25;;;4.70;;
64543;SDS011;50936;51.660;5.616;2022-07-29T08:20:34;10.95;;;5.63;;
64543;SDS011;50936;51.660;5.616;2022-07-29T08:23:02;11.30;;;4.57;;
64543;SDS011;50936;51.660;5.616;2022-07-29T08:25:30;7.03;;;4.38;;
64543;SDS011;50936;51.660;5.616;2022-07-29T08:28:03;6.93;;;4.20;;
64543;SDS011;50936;51.660;5.616;2022-07-29T08:30:31;6.95;;;4.10;;
64543;SDS011;50936;51.660;5.616;2022-07-29T08:32:58;10.75;;;4.50;;
64543;SDS011;50936;51.660;5.616;2022-07-29T08:35:28;7.55;;;4.45;;
64543;SDS011;50936;51.660;5.616;2022-07-29T08:38:01;8.30;;;4.13;;
64543;SDS011;50936;51.660;5.616;2022-07-29T08:40:29;8.48;;;3.67;;
64543;SDS011;50936;51.660;5.616;2022-07-29T08:42:58;8.27;;;4.15;;
64543;SDS011;50936;51.660;5.616;2022-07-29T08:45:42;8.35;;;4.18;;
64543;SDS011;50936;51.660;5.616;2022-07-29T08:48:17;8.23;;;4.95;;
64543;SDS011;50936;51.660;5.616;2022-07-29T08:50:48;7.10;;;3.70;;
64543;SDS011;50936;51.660;5.616;2022-07-29T08:53:20;8.57;;;3.67;;
64543;SDS011;50936;51.660;5.616;2022-07-29T08:55:50;6.50;;;3.92;;
64543;SDS011;50936;51.660;5.616;2022-07-29T08:58:17;8.50;;;4.18;;
64543;SDS011;50936;51.660;5.616;2022-07-29T09:00:50;8.85;;;4.18;;
64543;SDS011;50936;51.660;5.616;2022-07-29T09:03:22;7.07;;;4.20;;
64543;SDS011;50936;51.660;5.616;2022-07-29T09:05:53;9.20;;;4.38;;
64543;SDS011;50936;51.660;5.616;2022-07-29T09:08:20;10.75;;;4.10;;
64543;SDS011;50936;51.660;5.616;2022-07-29T09:10:48;7.78;;;4.03;;
64543;SDS011;50936;51.660;5.616;2022-07-29T09:13:15;7.80;;;4.05;;
64543;SDS011;50936;51.660;5.616;2022-07-29T09:15:42;6.78;;;4.13;;
64543;SDS011;50936;51.660;5.616;2022-07-29T09:18:09;7.03;;;4.03;;
64543;SDS011;50936;51.660;5.616;2022-07-29T09:20:56;8.35;;;3.55;;
64543;SDS011;50936;51.660;5.616;2022-07-29T09:23:58;8.20;;;3.80;;
64543;SDS011;50936;51.660;5.616;2022-07-29T09:26:44;9.68;;;4.05;;
64543;SDS011;50936;51.660;5.616;2022-07-29T09:29:13;9.05;;;4.00;;
64543;SDS011;50936;51.660;5.616;2022-07-29T09:31:46;7.25;;;3.65;;
64543;SDS011;50936;51.660;5.616;2022-07-29T09:34:17;8.02;;;3.88;;
64543;SDS011;50936;51.660;5.616;2022-07-29T09:36:56;7.82;;;4.07;;
64543;SDS011;50936;51.660;5.616;2022-07-29T09:39:41;7.93;;;3.70;;
64543;SDS011;50936;51.660;5.616;2022-07-29T09:42:12;8.52;;;3.72;;
64543;SDS011;50936;51.660;5.616;2022-07-29T09:44:47;8.35;;;3.85;;
64543;SDS011;50936;51.660;5.616;2022-07-29T09:47:18;11.00;;;4.43;;
64543;SDS011;50936;51.660;5.616;2022-07-29T09:49:52;10.60;;;3.90;;
64543;SDS011;50936;51.660;5.616;2022-07-29T09:52:27;8.23;;;3.25;;
64543;SDS011;50936;51.660;5.616;2022-07-29T09:55:08;6.63;;;3.08;;
64543;SDS011;50936;51.660;5.616;2022-07-29T09:57:44;6.72;;;3.30;;
64543;SDS011;50936;51.660;5.616;2022-07-29T10:00:13;5.55;;;3.00;;
64543;SDS011;50936;51.660;5.616;2022-07-29T10:02:45;7.20;;;3.30;;
64543;SDS011;50936;51.660;5.616;2022-07-29T10:05:23;5.25;;;3.00;;
64543;SDS011;50936;51.660;5.616;2022-07-29T10:08:01;5.50;;;3.33;;
64543;SDS011;50936;51.660;5.616;2022-07-29T10:10:29;6.43;;;3.28;;
64543;SDS011;50936;51.660;5.616;2022-07-29T10:13:05;6.10;;;3.25;;
64543;SDS011;50936;51.660;5.616;2022-07-29T10:15:41;5.00;;;3.08;;
64543;SDS011;50936;51.660;5.616;2022-07-29T10:18:12;6.72;;;3.25;;
64543;SDS011;50936;51.660;5.616;2022-07-29T10:20:43;5.85;;;3.03;;
64543;SDS011;50936;51.660;5.616;2022-07-29T10:23:10;7.78;;;3.10;;
64543;SDS011;50936;51.660;5.616;2022-07-29T10:25:38;6.30;;;2.95;;
64543;SDS011;50936;51.660;5.616;2022-07-29T10:28:11;6.47;;;3.63;;
64543;SDS011;50936;51.660;5.616;2022-07-29T10:30:42;7.18;;;3.80;;
64543;SDS011;50936;51.660;5.616;2022-07-29T10:33:18;5.78;;;3.10;;
64543;SDS011;50936;51.660;5.616;2022-07-29T10:36:24;9.07;;;3.63;;
64543;SDS011;50936;51.660;5.616;2022-07-29T10:42:19;6.70;;;3.17;;
64543;SDS011;50936;51.660;5.616;2022-07-29T10:44:59;10.95;;;6.03;;
64543;SDS011;50936;51.660;5.616;2022-07-29T10:47:30;7.78;;;3.28;;
64543;SDS011;50936;51.660;5.616;2022-07-29T10:50:01;9.20;;;3.30;;
64543;SDS011;50936;51.660;5.616;2022-07-29T10:58:15;9.65;;;3.10;;
64543;SDS011;50936;51.660;5.616;2022-07-29T11:00:50;7.53;;;3.20;;
64543;SDS011;50936;51.660;5.616;2022-07-29T11:06:18;7.57;;;3.30;;
64543;SDS011;50936;51.660;5.616;2022-07-29T11:12:03;9.18;;;3.80;;
64543;SDS011;50936;51.660;5.616;2022-07-29T11:19:50;11.40;;;2.92;;
64543;SDS011;50936;51.660;5.616;2022-07-29T11:22:36;6.22;;;3.25;;
64543;SDS011;50936;51.660;5.616;2022-07-29T11:25:14;5.88;;;2.70;;
64543;SDS011;50936;51.660;5.616;2022-07-29T11:30:11;8.25;;;2.40;;
64543;SDS011;50936;51.660;5.616;2022-07-29T11:32:40;5.03;;;3.03;;
64543;SDS011;50936;51.660;5.616;2022-07-29T11:35:18;5.22;;;2.88;;
64543;SDS011;50936;51.660;5.616;2022-07-29T11:43:52;4.80;;;2.65;;
64543;SDS011;50936;51.660;5.616;2022-07-29T11:49:19;7.78;;;3.33;;
64543;SDS011;50936;51.660;5.616;2022-07-29T11:51:58;7.18;;;2.83;;
64543;SDS011;50936;51.660;5.616;2022-07-29T11:54:33;5.90;;;2.50;;
64543;SDS011;50936;51.660;5.616;2022-07-29T11:57:21;6.85;;;2.38;;
64543;SDS011;50936;51.660;5.616;2022-07-29T12:00:01;3.67;;;2.35;;
64543;SDS011;50936;51.660;5.616;2022-07-29T12:02:38;5.07;;;2.40;;
64543;SDS011;50936;51.660;5.616;2022-07-29T12:05:14;8.73;;;3.08;;
64543;SDS011;50936;51.660;5.616;2022-07-29T12:08:12;4.88;;;2.80;;
64543;SDS011;50936;51.660;5.616;2022-07-29T12:10:45;5.25;;;2.53;;
64543;SDS011;50936;51.660;5.616;2022-07-29T12:13:17;6.55;;;3.20;;
64543;SDS011;50936;51.660;5.616;2022-07-29T12:15:53;5.93;;;2.70;;
64543;SDS011;50936;51.660;5.616;2022-07-29T12:18:27;5.85;;;2.97;;
64543;SDS011;50936;51.660;5.616;2022-07-29T12:20:57;5.75;;;3.25;;
64543;SDS011;50936;51.660;5.616;2022-07-29T12:23:32;9.38;;;3.85;;
64543;SDS011;50936;51.660;5.616;2022-07-29T12:26:04;5.03;;;2.58;;
64543;SDS011;50936;51.660;5.616;2022-07-29T12:28:37;6.57;;;2.97;;
64543;SDS011;50936;51.660;5.616;2022-07-29T12:31:05;7.07;;;3.13;;
64543;SDS011;50936;51.660;5.616;2022-07-29T12:33:39;6.07;;;2.55;;
64543;SDS011;50936;51.660;5.616;2022-07-29T12:36:06;5.90;;;2.75;;
64543;SDS011;50936;51.660;5.616;2022-07-29T12:38:42;5.40;;;2.72;;
64543;SDS011;50936;51.660;5.616;2022-07-29T12:41:10;4.80;;;2.40;;
64543;SDS011;50936;51.660;5.616;2022-07-29T12:43:47;8.63;;;2.60;;
64543;SDS011;50936;51.660;5.616;2022-07-29T12:46:19;4.18;;;2.20;;
64543;SDS011;50936;51.660;5.616;2022-07-29T12:48:49;4.88;;;2.40;;
64543;SDS011;50936;51.660;5.616;2022-07-29T12:51:33;4.88;;;2.42;;
64543;SDS011;50936;51.660;5.616;2022-07-29T12:56:41;4.60;;;2.47;;
64543;SDS011;50936;51.660;5.616;2022-07-29T12:59:14;5.30;;;2.60;;
64543;SDS011;50936;51.660;5.616;2022-07-29T13:01:46;6.15;;;2.60;;
64543;SDS011;50936;51.660;5.616;2022-07-29T13:04:25;7.40;;;2.63;;
64543;SDS011;50936;51.660;5.616;2022-07-29T13:07:07;3.72;;;2.35;;
64543;SDS011;50936;51.660;5.616;2022-07-29T13:09:54;6.65;;;2.13;;
64543;SDS011;50936;51.660;5.616;2022-07-29T13:12:37;6.10;;;2.22;;
64543;SDS011;50936;51.660;5.616;2022-07-29T13:15:12;5.18;;;2.13;;
64543;SDS011;50936;51.660;5.616;2022-07-29T13:17:43;4.22;;;2.30;;
64543;SDS011;50936;51.660;5.616;2022-07-29T13:20:13;5.00;;;2.47;;
64543;SDS011;50936;51.660;5.616;2022-07-29T13:22:40;7.88;;;2.63;;
64543;SDS011;50936;51.660;5.616;2022-07-29T13:25:09;6.05;;;2.70;;
64543;SDS011;50936;51.660;5.616;2022-07-29T13:27:37;5.90;;;2.75;;
64543;SDS011;50936;51.660;5.616;2022-07-29T13:30:10;5.22;;;2.58;;
64543;SDS011;50936;51.660;5.616;2022-07-29T13:32:38;6.47;;;2.55;;
64543;SDS011;50936;51.660;5.616;2022-07-29T13:35:06;6.80;;;2.95;;
64543;SDS011;50936;51.660;5.616;2022-07-29T13:37:35;6.30;;;2.70;;
64543;SDS011;50936;51.660;5.616;2022-07-29T13:40:05;6.90;;;2.60;;
64543;SDS011;50936;51.660;5.616;2022-07-29T13:42:34;6.32;;;2.72;;
64543;SDS011;50936;51.660;5.616;2022-07-29T13:45:02;5.57;;;2.63;;
64543;SDS011;50936;51.660;5.616;2022-07-29T13:47:30;5.63;;;2.70;;
64543;SDS011;50936;51.660;5.616;2022-07-29T13:50:03;4.82;;;2.15;;
64543;SDS011;50936;51.660;5.616;2022-07-29T13:52:32;6.22;;;2.72;;
64543;SDS011;50936;51.660;5.616;2022-07-29T13:55:00;4.15;;;2.20;;
64543;SDS011;50936;51.660;5.616;2022-07-29T13:57:28;6.13;;;2.40;;
64543;SDS011;50936;51.660;5.616;2022-07-29T13:59:56;3.28;;;1.90;;
64543;SDS011;50936;51.660;5.616;2022-07-29T14:02:23;4.80;;;2.20;;
64543;SDS011;50936;51.660;5.616;2022-07-29T14:04:52;4.93;;;2.25;;
64543;SDS011;50936;51.660;5.616;2022-07-29T14:07:20;4.05;;;2.22;;
64543;SDS011;50936;51.660;5.616;2022-07-29T14:09:48;3.97;;;2.08;;
64543;SDS011;50936;51.660;5.616;2022-07-29T14:12:16;7.47;;;2.50;;
64543;SDS011;50936;51.660;5.616;2022-07-29T14:14:43;5.95;;;2.10;;
64543;SDS011;50936;51.660;5.616;2022-07-29T14:17:12;4.95;;;2.38;;
64543;SDS011;50936;51.660;5.616;2022-07-29T14:19:40;7.10;;;2.20;;
64543;SDS011;50936;51.660;5.616;2022-07-29T14:22:07;6.50;;;2.20;;
64543;SDS011;50936;51.660;5.616;2022-07-29T14:24:36;3.35;;;2.22;;
64543;SDS011;50936;51.660;5.616;2022-07-29T14:27:04;4.50;;;2.22;;
64543;SDS011;50936;51.660;5.616;2022-07-29T14:29:34;3.40;;;1.98;;
64543;SDS011;50936;51.660;5.616;2022-07-29T14:32:06;5.25;;;2.80;;
64543;SDS011;50936;51.660;5.616;2022-07-29T14:34:36;4.60;;;2.22;;
64543;SDS011;50936;51.660;5.616;2022-07-29T14:37:04;3.65;;;2.22;;
64543;SDS011;50936;51.660;5.616;2022-07-29T14:39:32;5.07;;;2.20;;
64543;SDS011;50936;51.660;5.616;2022-07-29T14:42:08;6.43;;;2.80;;
64543;SDS011;50936;51.660;5.616;2022-07-29T14:44:38;6.25;;;2.80;;
64543;SDS011;50936;51.660;5.616;2022-07-29T14:47:07;5.00;;;2.40;;
64543;SDS011;50936;51.660;5.616;2022-07-29T14:49:35;6.03;;;2.53;;
64543;SDS011;50936;51.660;5.616;2022-07-29T14:52:02;7.13;;;3.15;;
64543;SDS011;50936;51.660;5.616;2022-07-29T14:54:29;6.00;;;3.03;;
64543;SDS011;50936;51.660;5.616;2022-07-29T14:56:56;6.15;;;2.53;;
64543;SDS011;50936;51.660;5.616;2022-07-29T14:59:24;6.93;;;2.63;;
64543;SDS011;50936;51.660;5.616;2022-07-29T15:01:52;6.20;;;2.42;;
64543;SDS011;50936;51.660;5.616;2022-07-29T15:04:19;6.97;;;2.08;;
64543;SDS011;50936;51.660;5.616;2022-07-29T15:06:46;4.10;;;2.50;;
64543;SDS011;50936;51.660;5.616;2022-07-29T15:09:14;5.32;;;1.88;;
64543;SDS011;50936;51.660;5.616;2022-07-29T15:11:40;4.18;;;2.05;;
64543;SDS011;50936;51.660;5.616;2022-07-29T15:14:07;7.93;;;2.78;;
64543;SDS011;50936;51.660;5.616;2022-07-29T15:16:35;5.55;;;2.42;;
64543;SDS011;50936;51.660;5.616;2022-07-29T15:19:04;6.95;;;2.30;;
64543;SDS011;50936;51.660;5.616;2022-07-29T15:21:31;5.88;;;2.55;;
64543;SDS011;50936;51.660;5.616;2022-07-29T15:23:58;5.45;;;2.50;;
64543;SDS011;50936;51.660;5.616;2022-07-29T15:26:25;5.55;;;2.40;;
64543;SDS011;50936;51.660;5.616;2022-07-29T15:28:52;5.38;;;2.38;;
64543;SDS011;50936;51.660;5.616;2022-07-29T15:31:19;5.30;;;2.47;;
64543;SDS011;50936;51.660;5.616;2022-07-29T15:33:46;8.48;;;2.67;;
64543;SDS011;50936;51.660;5.616;2022-07-29T15:36:13;4.50;;;2.40;;
64543;SDS011;50936;51.660;5.616;2022-07-29T15:39:00;8.15;;;2.47;;
64543;SDS011;50936;51.660;5.616;2022-07-29T15:41:27;3.45;;;2.20;;
64543;SDS011;50936;51.660;5.616;2022-07-29T15:43:54;5.75;;;2.22;;
64543;SDS011;50936;51.660;5.616;2022-07-29T15:46:21;6.72;;;2.67;;
64543;SDS011;50936;51.660;5.616;2022-07-29T15:49:06;5.88;;;2.40;;
64543;SDS011;50936;51.660;5.616;2022-07-29T15:51:34;4.57;;;2.17;;
64543;SDS011;50936;51.660;5.616;2022-07-29T15:54:01;5.38;;;2.53;;
64543;SDS011;50936;51.660;5.616;2022-07-29T15:56:30;6.82;;;2.22;;
64543;SDS011;50936;51.660;5.616;2022-07-29T15:58:57;11.52;;;2.50;;
64543;SDS011;50936;51.660;5.616;2022-07-29T16:01:26;3.47;;;2.30;;